createdAt,value
2023-01-26T00:01:31.397Z,66.30
2023-01-26T00:03:59.845Z,67.20
2023-01-26T00:06:28.202Z,67.80
2023-01-26T00:08:57.719Z,67.80
2023-01-26T00:11:28.069Z,64.20
2023-01-26T00:13:58.952Z,59.90
2023-01-26T00:16:28.502Z,57.70
2023-01-26T00:18:56.832Z,55.90
2023-01-26T00:21:25.875Z,54.50
2023-01-26T00:23:54.243Z,53.50
2023-01-26T00:26:24.944Z,52.10
2023-01-26T00:28:54.429Z,51.50
2023-01-26T00:31:27.876Z,50.30
2023-01-26T00:33:57.219Z,50.10
2023-01-26T00:36:25.869Z,55.50
2023-01-26T00:38:53.877Z,58.60
2023-01-26T00:41:22.387Z,60.70
2023-01-26T00:43:50.502Z,62.50
2023-01-26T00:46:18.849Z,64.00
2023-01-26T00:48:47.071Z,65.40
2023-01-26T00:51:15.227Z,66.60
2023-01-26T00:53:43.434Z,67.00
2023-01-26T00:56:11.675Z,67.50
2023-01-26T00:58:39.906Z,67.50
2023-01-26T01:01:08.229Z,60.70
2023-01-26T01:03:36.607Z,58.30
2023-01-26T01:06:06.826Z,56.30
2023-01-26T01:08:35.039Z,54.80
2023-01-26T01:11:11.840Z,53.60
2023-01-26T01:13:40.656Z,52.30
2023-01-26T01:16:09.244Z,51.20
2023-01-26T01:18:37.653Z,50.80
2023-01-26T01:21:14.129Z,55.20
2023-01-26T01:23:43.028Z,59.10
2023-01-26T01:26:11.764Z,61.80
2023-01-26T01:28:39.864Z,63.00
2023-01-26T01:31:13.455Z,64.50
2023-01-26T01:33:43.094Z,65.80
2023-01-26T01:36:16.540Z,66.70
2023-01-26T01:38:46.475Z,67.30
2023-01-26T01:41:16.799Z,67.70
2023-01-26T01:43:45.850Z,67.90
2023-01-26T01:46:29.387Z,63.80
2023-01-26T01:49:18.477Z,59.40
2023-01-26T01:51:56.482Z,57.30
2023-01-26T01:54:30.745Z,55.70
2023-01-26T01:57:02.721Z,54.10
2023-01-26T01:59:33.298Z,52.90
2023-01-26T02:02:01.760Z,52.00
2023-01-26T02:04:30.391Z,53.60
2023-01-26T02:07:02.136Z,58.50
2023-01-26T02:09:34.968Z,61.40
2023-01-26T02:12:05.502Z,63.10
2023-01-26T02:14:34.739Z,64.60
2023-01-26T02:17:02.991Z,66.20
2023-01-26T02:19:51.009Z,67.50
2023-01-26T02:22:47.528Z,68.00
2023-01-26T02:25:24.281Z,68.70
2023-01-26T02:27:52.711Z,68.60
2023-01-26T02:30:23.940Z,64.70
2023-01-26T02:32:52.454Z,60.30
2023-01-26T02:35:21.079Z,57.80
2023-01-26T02:37:49.514Z,56.50
2023-01-26T02:40:24.109Z,55.10
2023-01-26T02:42:52.575Z,53.70
2023-01-26T02:45:22.690Z,52.20
2023-01-26T02:47:50.943Z,55.00
2023-01-26T02:50:20.546Z,59.70
2023-01-26T02:52:54.979Z,62.10
2023-01-26T02:55:25.081Z,63.90
2023-01-26T02:57:59.203Z,65.40
2023-01-26T03:00:33.445Z,66.80
2023-01-26T03:03:02.896Z,68.10
2023-01-26T03:05:32.044Z,68.80
2023-01-26T03:08:00.371Z,68.50
2023-01-26T03:10:35.635Z,69.20
2023-01-26T03:13:04.336Z,66.00
2023-01-26T03:15:34.064Z,61.00
2023-01-26T03:18:08.344Z,58.80
2023-01-26T03:20:38.721Z,57.20
2023-01-26T03:23:09.456Z,55.60
2023-01-26T03:25:38.850Z,54.30
2023-01-26T03:28:07.014Z,53.40
2023-01-26T03:30:36.350Z,52.20
2023-01-26T03:33:04.659Z,56.10
2023-01-26T03:35:32.932Z,60.60
2023-01-26T03:38:02.143Z,62.40
2023-01-26T03:40:50.684Z,64.20
2023-01-26T03:43:19.501Z,66.20
2023-01-26T03:45:47.761Z,67.40
2023-01-26T03:48:16.147Z,68.40
2023-01-26T03:50:44.910Z,69.50
2023-01-26T03:53:18.690Z,69.90
2023-01-26T03:55:46.942Z,69.90
2023-01-26T03:58:15.244Z,67.50
2023-01-26T04:00:44.044Z,61.60
2023-01-26T04:03:12.233Z,59.90
2023-01-26T04:05:40.602Z,57.90
2023-01-26T04:08:08.949Z,56.60
2023-01-26T04:10:37.069Z,55.00
2023-01-26T04:13:06.409Z,54.00
2023-01-26T04:15:36.499Z,52.90
2023-01-26T04:18:10.982Z,53.30
2023-01-26T04:20:39.300Z,58.70
2023-01-26T04:23:07.683Z,61.50
2023-01-26T04:25:36.069Z,63.60
2023-01-26T04:28:04.527Z,65.40
2023-01-26T04:30:35.986Z,66.60
2023-01-26T04:33:04.813Z,68.00
2023-01-26T04:35:34.062Z,69.10
2023-01-26T04:38:02.357Z,69.40
2023-01-26T04:40:31.898Z,69.70
2023-01-26T04:43:00.263Z,70.00
2023-01-26T04:45:29.246Z,65.20
2023-01-26T04:47:57.760Z,61.20
2023-01-26T04:50:27.644Z,59.30
2023-01-26T04:52:55.947Z,57.50
2023-01-26T04:55:24.460Z,55.80
2023-01-26T04:57:53.301Z,58.10
2023-01-26T05:00:21.810Z,63.30
2023-01-26T05:02:50.848Z,65.10
2023-01-26T05:05:19.065Z,66.60
2023-01-26T05:07:47.365Z,68.10
2023-01-26T05:10:16.135Z,69.40
2023-01-26T05:12:54.549Z,70.40
2023-01-26T05:15:32.280Z,70.70
2023-01-26T05:18:29.615Z,71.00
2023-01-26T05:21:05.309Z,71.60
2023-01-26T05:23:42.179Z,65.10
2023-01-26T05:26:38.157Z,61.90
2023-01-26T05:29:11.017Z,59.70
2023-01-26T05:31:39.391Z,58.00
2023-01-26T05:34:07.785Z,56.20
2023-01-26T05:36:37.755Z,55.10
2023-01-26T05:39:06.605Z,55.00
2023-01-26T05:41:34.869Z,60.50
2023-01-26T05:44:21.419Z,63.60
2023-01-26T05:46:54.605Z,65.60
2023-01-26T05:49:23.320Z,67.30
2023-01-26T05:51:52.873Z,68.40
2023-01-26T05:54:21.242Z,69.40
2023-01-26T05:56:50.763Z,70.40
2023-01-26T05:59:18.680Z,71.20
2023-01-26T06:01:47.941Z,71.40
2023-01-26T06:04:17.867Z,71.50
2023-01-26T06:06:57.881Z,66.40
2023-01-26T06:09:31.772Z,62.80
2023-01-26T06:12:21.082Z,60.30
2023-01-26T06:14:59.313Z,58.10
2023-01-26T06:17:36.435Z,56.60
2023-01-26T06:20:09.269Z,55.10
2023-01-26T06:22:38.115Z,53.90
2023-01-26T06:25:06.799Z,58.90
2023-01-26T06:27:35.872Z,62.60
2023-01-26T06:30:12.296Z,64.50
2023-01-26T06:32:41.426Z,66.30
2023-01-26T06:35:10.549Z,67.50
2023-01-26T06:37:40.419Z,68.70
2023-01-26T06:40:09.817Z,69.50
2023-01-26T06:42:38.774Z,70.40
2023-01-26T06:45:07.516Z,70.50
2023-01-26T06:47:36.770Z,70.60
2023-01-26T06:50:06.347Z,70.60
2023-01-26T06:52:37.327Z,65.80
2023-01-26T06:55:39.883Z,62.00
2023-01-26T06:58:34.368Z,59.90
2023-01-26T07:01:44.139Z,58.20
2023-01-26T07:04:12.522Z,57.00
2023-01-26T07:06:40.760Z,62.50
2023-01-26T07:09:09.127Z,65.70
2023-01-26T07:11:37.626Z,68.00
2023-01-26T07:14:06.109Z,70.10
2023-01-26T07:16:34.524Z,71.00
2023-01-26T07:19:02.936Z,71.90
2023-01-26T07:21:31.379Z,73.00
2023-01-26T07:23:59.638Z,74.10
2023-01-26T07:26:27.985Z,74.60
2023-01-26T07:28:56.189Z,74.80
2023-01-26T07:31:24.625Z,67.00
2023-01-26T07:33:52.951Z,63.90
2023-01-26T07:36:21.161Z,61.60
2023-01-26T07:38:49.489Z,61.10
2023-01-26T07:41:17.861Z,67.20
2023-01-26T07:43:45.996Z,68.60
2023-01-26T07:46:14.378Z,70.40
2023-01-26T07:48:42.632Z,71.80
2023-01-26T07:51:11.024Z,72.70
2023-01-26T07:53:39.377Z,73.80
2023-01-26T07:56:12.460Z,74.50
2023-01-26T07:58:41.302Z,74.60
2023-01-26T08:01:10.712Z,74.90
2023-01-26T08:03:39.455Z,71.60
2023-01-26T08:06:12.405Z,66.40
2023-01-26T08:08:42.790Z,63.80
2023-01-26T08:11:12.075Z,61.50
2023-01-26T08:13:40.683Z,59.80
2023-01-26T08:16:11.390Z,58.30
2023-01-26T08:18:41.779Z,56.80
2023-01-26T08:21:12.237Z,55.20
2023-01-26T08:23:41.678Z,54.10
2023-01-26T08:26:12.926Z,57.40
2023-01-26T08:28:41.680Z,62.10
2023-01-26T08:31:13.384Z,64.00
2023-01-26T08:33:43.324Z,65.80
2023-01-26T08:36:16.359Z,67.40
2023-01-26T08:38:45.651Z,69.00
2023-01-26T08:41:13.985Z,70.10
2023-01-26T08:43:42.263Z,71.10
2023-01-26T08:46:10.911Z,71.70
2023-01-26T08:48:38.932Z,71.90
2023-01-26T08:51:08.635Z,72.40
2023-01-26T08:53:38.012Z,68.50
2023-01-26T08:56:08.989Z,65.00
2023-01-26T08:58:38.185Z,61.90
2023-01-26T09:01:14.525Z,60.20
2023-01-26T09:03:43.628Z,58.70
2023-01-26T09:06:14.002Z,57.00
2023-01-26T09:08:42.696Z,55.60
2023-01-26T09:11:11.283Z,55.40
2023-01-26T09:13:39.617Z,61.00
2023-01-26T09:16:20.605Z,64.30
2023-01-26T09:18:52.947Z,66.40
2023-01-26T09:21:21.406Z,68.10
2023-01-26T09:23:49.701Z,70.00
2023-01-26T09:26:17.899Z,71.50
2023-01-26T09:28:49.998Z,72.40
2023-01-26T09:31:18.437Z,73.00
2023-01-26T09:33:46.578Z,73.60
2023-01-26T09:36:15.056Z,73.90
2023-01-26T09:38:43.448Z,74.20
2023-01-26T09:41:11.730Z,67.90
2023-01-26T09:43:56.124Z,64.40
2023-01-26T09:46:26.617Z,61.70
2023-01-26T09:49:50.793Z,65.00
2023-01-26T09:52:31.841Z,69.20
2023-01-26T09:55:03.710Z,71.30
2023-01-26T09:57:43.388Z,72.60
2023-01-26T10:00:30.838Z,73.60
2023-01-26T10:03:14.034Z,74.60
2023-01-26T10:06:21.726Z,75.30
2023-01-26T10:09:20.526Z,74.10
2023-01-26T10:11:58.954Z,66.30
2023-01-26T10:14:51.814Z,63.20
2023-01-26T10:17:36.904Z,60.80
2023-01-26T10:20:39.726Z,59.20
2023-01-26T10:23:23.042Z,57.50
2023-01-26T10:25:52.674Z,56.40
2023-01-26T10:28:30.926Z,57.70
2023-01-26T10:30:59.406Z,63.10
2023-01-26T10:33:37.897Z,66.10
2023-01-26T10:36:08.173Z,68.40
2023-01-26T10:38:36.512Z,70.20
2023-01-26T10:41:28.315Z,71.50
2023-01-26T10:44:02.474Z,72.50
2023-01-26T10:46:34.821Z,73.90
2023-01-26T10:49:16.429Z,74.30
2023-01-26T10:52:05.662Z,75.10
2023-01-26T10:54:34.110Z,69.90
2023-01-26T10:57:06.111Z,65.30
2023-01-26T10:59:53.506Z,62.40
2023-01-26T11:02:25.488Z,60.30
2023-01-26T11:05:08.895Z,58.50
2023-01-26T11:07:37.809Z,57.60
2023-01-26T11:10:28.721Z,56.70
2023-01-26T11:13:22.751Z,55.60
2023-01-26T11:16:02.294Z,54.50
2023-01-26T11:18:52.083Z,53.90
2023-01-26T11:21:48.477Z,53.40
2023-01-26T11:24:20.278Z,51.80
2023-01-26T11:27:25.351Z,51.30
2023-01-26T11:30:40.630Z,50.70
2023-01-26T11:33:24.732Z,50.10
2023-01-26T11:36:07.800Z,50.00
2023-01-26T11:38:47.572Z,49.70
2023-01-26T11:41:40.911Z,49.80
2023-01-26T11:44:31.061Z,48.70
2023-01-26T11:47:02.488Z,48.40
2023-01-26T11:49:58.579Z,48.00
2023-01-26T11:52:51.509Z,47.80
2023-01-26T11:55:29.905Z,47.70
2023-01-26T11:58:01.206Z,48.00
2023-01-26T12:00:53.872Z,53.70
2023-01-26T12:03:54.355Z,57.70
2023-01-26T12:06:45.051Z,60.40
2023-01-26T12:09:38.760Z,62.90
2023-01-26T12:12:13.504Z,64.20
2023-01-26T12:14:54.219Z,66.20
2023-01-26T12:17:22.680Z,67.30
2023-01-26T12:19:53.683Z,68.10
2023-01-26T12:22:22.072Z,68.30
2023-01-26T12:25:18.031Z,68.80
2023-01-26T12:27:58.226Z,62.60
2023-01-26T12:30:29.739Z,59.50
2023-01-26T12:32:58.138Z,57.80
2023-01-26T12:35:40.514Z,57.20
2023-01-26T12:38:19.265Z,55.60
2023-01-26T12:40:58.990Z,54.50
2023-01-26T12:43:39.870Z,54.00
2023-01-26T12:46:09.832Z,52.80
2023-01-26T12:48:41.763Z,52.10
2023-01-26T12:51:24.586Z,51.40
2023-01-26T12:54:24.048Z,50.60
2023-01-26T12:56:57.254Z,50.30
2023-01-26T12:59:46.741Z,49.60
2023-01-26T13:02:26.201Z,49.40
2023-01-26T13:04:55.615Z,49.10
2023-01-26T13:07:40.921Z,48.70
2023-01-26T13:10:15.868Z,48.20
2023-01-26T13:13:19.978Z,48.30
2023-01-26T13:15:54.578Z,48.40
2023-01-26T13:18:50.353Z,53.30
2023-01-26T13:21:42.756Z,57.80
2023-01-26T13:24:17.448Z,61.00
2023-01-26T13:26:46.670Z,63.40
2023-01-26T13:29:26.941Z,65.10
2023-01-26T13:31:57.436Z,66.60
2023-01-26T13:34:28.026Z,68.00
2023-01-26T13:37:05.741Z,68.70
2023-01-26T13:39:38.029Z,69.40
2023-01-26T13:42:23.492Z,65.30
2023-01-26T13:45:02.996Z,61.00
2023-01-26T13:47:38.655Z,58.80
2023-01-26T13:50:30.592Z,57.40
2023-01-26T13:52:59.334Z,55.70
2023-01-26T13:55:32.187Z,54.80
2023-01-26T13:58:18.112Z,53.80
2023-01-26T14:01:07.508Z,53.00
2023-01-26T14:03:35.892Z,52.40
2023-01-26T14:06:20.802Z,51.70
2023-01-26T14:08:57.099Z,51.70
2023-01-26T14:11:28.450Z,51.00
2023-01-26T14:14:02.120Z,50.60
2023-01-26T14:16:36.482Z,50.60
2023-01-26T14:19:14.415Z,50.00
2023-01-26T14:21:53.237Z,49.80
2023-01-26T14:24:27.051Z,49.40
2023-01-26T14:26:55.738Z,48.90
2023-01-26T14:29:26.585Z,48.70
2023-01-26T14:32:00.505Z,48.40
2023-01-26T14:34:31.333Z,48.00
2023-01-26T14:37:17.971Z,47.80
2023-01-26T14:39:46.829Z,48.00
2023-01-26T14:42:21.324Z,47.50
2023-01-26T14:44:49.813Z,47.20
2023-01-26T14:47:18.068Z,47.10
2023-01-26T14:49:49.733Z,46.80
2023-01-26T14:52:27.400Z,46.90
2023-01-26T14:54:59.581Z,46.60
2023-01-26T14:57:29.820Z,46.30
2023-01-26T15:00:02.662Z,46.40
2023-01-26T15:02:43.448Z,46.20
2023-01-26T15:05:19.743Z,46.20
2023-01-26T15:07:57.977Z,46.00
2023-01-26T15:10:43.928Z,46.00
2023-01-26T15:13:12.330Z,46.30
2023-01-26T15:15:43.648Z,46.30
2023-01-26T15:18:14.998Z,46.30
2023-01-26T15:21:13.757Z,45.80
2023-01-26T15:23:44.726Z,46.20
2023-01-26T15:26:24.956Z,45.60
2023-01-26T15:28:55.888Z,45.60
2023-01-26T15:31:43.153Z,45.90
2023-01-26T15:34:32.975Z,45.70
2023-01-26T15:37:02.307Z,45.80
2023-01-26T15:39:30.459Z,46.00
2023-01-26T15:42:17.194Z,45.80
2023-01-26T15:44:45.555Z,45.30
2023-01-26T15:47:13.822Z,45.00
2023-01-26T15:49:42.327Z,45.00
2023-01-26T15:52:14.572Z,44.90
2023-01-26T15:54:43.344Z,44.90
2023-01-26T15:57:12.268Z,44.80
2023-01-26T15:59:41.383Z,44.60
2023-01-26T16:02:18.310Z,44.40
2023-01-26T16:04:47.669Z,44.50
2023-01-26T16:07:18.568Z,44.50
2023-01-26T16:09:47.074Z,44.50
2023-01-26T16:12:32.742Z,44.70
2023-01-26T16:15:01.540Z,44.40
2023-01-26T16:17:29.750Z,44.20
2023-01-26T16:19:58.066Z,44.20
2023-01-26T16:22:26.206Z,43.80
2023-01-26T16:24:54.634Z,43.90
2023-01-26T16:27:22.902Z,43.70
2023-01-26T16:29:51.162Z,44.00
2023-01-26T16:32:29.647Z,43.80
2023-01-26T16:34:58.269Z,43.40
2023-01-26T16:37:26.648Z,43.80
2023-01-26T16:39:54.959Z,44.40
2023-01-26T16:42:23.323Z,44.60
2023-01-26T16:44:51.822Z,44.70
2023-01-26T16:47:20.329Z,44.50
2023-01-26T16:49:48.573Z,44.20
2023-01-26T16:52:17.164Z,44.10
2023-01-26T16:54:45.567Z,44.00
2023-01-26T16:57:13.717Z,43.50
2023-01-26T16:59:42.224Z,43.30
2023-01-26T17:02:24.164Z,43.10
2023-01-26T17:04:53.152Z,42.90
2023-01-26T17:08:10.257Z,42.00
2023-01-26T17:10:51.909Z,45.60
2023-01-26T17:13:27.735Z,50.90
2023-01-26T17:15:57.747Z,54.80
2023-01-26T17:18:26.697Z,57.10
2023-01-26T17:20:55.135Z,59.70
2023-01-26T17:23:23.651Z,61.00
2023-01-26T17:25:59.999Z,55.10
2023-01-26T17:28:28.949Z,52.20
2023-01-26T17:30:59.417Z,50.40
2023-01-26T17:33:30.029Z,49.30
2023-01-26T17:36:02.787Z,48.60
2023-01-26T17:38:31.377Z,48.00
2023-01-26T17:41:00.441Z,48.00
2023-01-26T17:43:29.118Z,47.20
2023-01-26T17:46:11.038Z,47.00
2023-01-26T17:48:39.878Z,46.60
2023-01-26T17:51:12.069Z,46.00
2023-01-26T17:53:41.790Z,47.00
2023-01-26T17:56:12.333Z,47.40
2023-01-26T17:58:41.203Z,47.70
2023-01-26T18:01:10.841Z,48.40
2023-01-26T18:03:43.242Z,49.20
2023-01-26T18:06:12.128Z,49.10
2023-01-26T18:08:40.256Z,49.50
2023-01-26T18:11:11.582Z,50.10
2023-01-26T18:13:41.067Z,49.90
2023-01-26T18:16:11.196Z,50.30
2023-01-26T18:18:39.487Z,50.50
2023-01-26T18:21:16.805Z,50.70
2023-01-26T18:23:47.047Z,50.60
2023-01-26T18:26:16.698Z,51.30
2023-01-26T18:28:46.042Z,51.10
2023-01-26T18:31:22.751Z,51.40
2023-01-26T18:33:51.045Z,51.10
2023-01-26T18:36:21.034Z,51.30
2023-01-26T18:38:54.836Z,51.40
2023-01-26T18:41:24.779Z,48.90
2023-01-26T18:43:55.124Z,49.00
2023-01-26T18:46:23.673Z,46.70
2023-01-26T18:48:54.542Z,51.30
2023-01-26T18:51:23.397Z,55.20
2023-01-26T18:53:51.201Z,57.90
2023-01-26T18:56:19.542Z,60.30
2023-01-26T18:58:47.935Z,62.00
2023-01-26T19:01:17.138Z,63.80
2023-01-26T19:03:45.396Z,65.60
2023-01-26T19:06:15.431Z,66.50
2023-01-26T19:08:43.604Z,61.60
2023-01-26T19:11:12.167Z,57.40
2023-01-26T19:13:41.907Z,54.60
2023-01-26T19:16:10.854Z,52.50
2023-01-26T19:18:39.216Z,51.00
2023-01-26T19:21:07.648Z,49.60
2023-01-26T19:23:35.799Z,48.80
2023-01-26T19:26:11.115Z,47.80
2023-01-26T19:28:39.443Z,47.60
2023-01-26T19:31:07.695Z,46.60
2023-01-26T19:33:39.248Z,50.40
2023-01-26T19:36:08.763Z,55.00
2023-01-26T19:38:41.227Z,57.60
2023-01-26T19:41:09.886Z,60.10
2023-01-26T19:43:39.635Z,61.80
2023-01-26T19:46:08.000Z,63.50
2023-01-26T19:48:36.340Z,65.20
2023-01-26T19:51:12.161Z,65.70
2023-01-26T19:53:46.082Z,66.80
2023-01-26T19:56:23.124Z,62.20
2023-01-26T19:58:54.005Z,58.40
2023-01-26T20:01:24.515Z,55.80
2023-01-26T20:03:59.709Z,54.30
2023-01-26T20:06:32.558Z,53.00
2023-01-26T20:09:01.466Z,51.80
2023-01-26T20:11:30.443Z,50.70
2023-01-26T20:14:04.974Z,49.70
2023-01-26T20:16:33.528Z,48.70
2023-01-26T20:19:02.267Z,48.40
2023-01-26T20:21:30.806Z,47.30
2023-01-26T20:24:05.344Z,47.10
2023-01-26T20:26:35.771Z,46.20
2023-01-26T20:29:04.603Z,45.60
2023-01-26T20:31:32.958Z,45.00
2023-01-26T20:34:01.465Z,44.60
2023-01-26T20:36:30.400Z,44.40
2023-01-26T20:38:58.987Z,43.90
2023-01-26T20:41:30.238Z,43.60
2023-01-26T20:44:02.012Z,43.10
2023-01-26T20:46:33.898Z,43.30
2023-01-26T20:49:02.475Z,43.00
2023-01-26T20:51:32.832Z,42.60
2023-01-26T20:54:01.527Z,46.90
2023-01-26T20:56:30.243Z,51.10
2023-01-26T20:58:58.218Z,54.00
2023-01-26T21:01:27.582Z,56.40
2023-01-26T21:03:56.168Z,58.30
2023-01-26T21:06:24.711Z,59.70
2023-01-26T21:08:59.703Z,60.80
2023-01-26T21:11:31.170Z,62.00
2023-01-26T21:14:01.141Z,62.50
2023-01-26T21:16:31.209Z,57.80
2023-01-26T21:18:59.988Z,54.50
2023-01-26T21:21:28.674Z,52.80
2023-01-26T21:23:56.918Z,51.50
2023-01-26T21:26:26.603Z,50.70
2023-01-26T21:28:57.204Z,49.80
2023-01-26T21:31:27.925Z,50.00
2023-01-26T21:33:58.319Z,49.00
2023-01-26T21:36:29.094Z,48.20
2023-01-26T21:38:59.268Z,47.40
2023-01-26T21:41:32.803Z,46.50
2023-01-26T21:44:04.202Z,45.90
2023-01-26T21:46:36.908Z,45.50
2023-01-26T21:49:10.464Z,45.00
2023-01-26T21:51:38.785Z,44.50
2023-01-26T21:54:07.433Z,44.00
2023-01-26T21:56:36.116Z,43.70
2023-01-26T21:59:04.867Z,43.20
2023-01-26T22:01:33.563Z,45.10
2023-01-26T22:04:02.536Z,50.60
2023-01-26T22:06:31.370Z,53.40
2023-01-26T22:08:59.988Z,55.90
2023-01-26T22:11:29.266Z,57.40
2023-01-26T22:13:57.760Z,59.40
2023-01-26T22:16:26.187Z,60.70
2023-01-26T22:18:54.669Z,61.60
2023-01-26T22:21:23.720Z,62.20
2023-01-26T22:23:53.484Z,62.50
2023-01-26T22:26:23.509Z,56.90
2023-01-26T22:28:53.853Z,54.20
2023-01-26T22:31:24.671Z,52.40
2023-01-26T22:33:54.144Z,51.20
2023-01-26T22:36:22.980Z,50.80
2023-01-26T22:38:51.728Z,49.20
2023-01-26T22:41:25.921Z,48.20
2023-01-26T22:43:57.209Z,47.50
2023-01-26T22:46:27.207Z,46.50
2023-01-26T22:48:57.595Z,46.10
2023-01-26T22:51:46.633Z,46.70
2023-01-26T22:54:15.242Z,52.40
2023-01-26T22:56:43.491Z,55.20
2023-01-26T22:59:11.855Z,57.40
2023-01-26T23:01:40.190Z,59.40
2023-01-26T23:04:09.204Z,60.80
2023-01-26T23:06:37.454Z,62.30
2023-01-26T23:09:05.913Z,63.20
2023-01-26T23:11:34.277Z,63.70
2023-01-26T23:14:02.531Z,63.30
2023-01-26T23:16:30.916Z,57.40
2023-01-26T23:19:00.205Z,54.90
2023-01-26T23:21:29.576Z,53.40
2023-01-26T23:23:58.575Z,52.30
2023-01-26T23:26:27.426Z,51.10
2023-01-26T23:28:55.835Z,50.20
2023-01-26T23:31:24.441Z,49.20
2023-01-26T23:33:52.799Z,48.50
2023-01-26T23:36:21.393Z,47.70
2023-01-26T23:38:50.410Z,46.90
2023-01-26T23:41:19.437Z,46.40
2023-01-26T23:43:47.875Z,45.80
2023-01-26T23:46:16.028Z,45.30
2023-01-26T23:48:44.444Z,44.80
2023-01-26T23:51:13.416Z,48.20
2023-01-26T23:53:41.805Z,53.00
2023-01-26T23:56:14.743Z,55.60
2023-01-26T23:58:43.211Z,57.90
